Time;durP1;ratioP1;P1;durP2;ratioP2;P2;SDS_P1;SDS_P2;PMS_P1;PMS_P2;Temp;Humidity;BMP_temperature;BMP_pressure;BME280_temperature;BME280_humidity;BME280_pressure;Samples;Min_cycle;Max_cycle;Signal;HPM_P1;HPM_P2
2022/05/29 00:01:36;;;;;;;9.10;5.72;;;;;;;;;;5032130;28;20091;-38
2022/05/29 00:04:01;;;;;;;8.38;5.53;;;;;;;;;;5032027;28;20435;-38
2022/05/29 00:06:26;;;;;;;10.85;6.13;;;;;;;;;;5033220;28;20044;-38
2022/05/29 00:08:52;;;;;;;11.35;6.30;;;;;;;;;;5034688;28;20021;-38
2022/05/29 00:11:17;;;;;;;10.00;6.35;;;;;;;;;;5035785;28;20018;-38
2022/05/29 00:13:44;;;;;;;10.00;6.47;;;;;;;;;;5034524;28;20018;-38
2022/05/29 00:16:10;;;;;;;9.18;6.20;;;;;;;;;;5034397;28;20457;-38
2022/05/29 00:18:37;;;;;;;11.50;6.28;;;;;;;;;;5035368;28;20029;-38
2022/05/29 00:21:04;;;;;;;10.07;5.70;;;;;;;;;;5035682;28;20033;-38
2022/05/29 00:23:30;;;;;;;10.30;6.13;;;;;;;;;;5034269;28;20026;-38
2022/05/29 00:25:55;;;;;;;9.20;6.57;;;;;;;;;;5035633;28;20036;-38
2022/05/29 00:28:21;;;;;;;12.35;6.65;;;;;;;;;;5035584;28;20097;-38
2022/05/29 00:30:46;;;;;;;8.55;5.47;;;;;;;;;;5033846;28;20025;-38
2022/05/29 00:33:12;;;;;;;9.02;5.75;;;;;;;;;;5035064;28;20021;-38
2022/05/29 00:35:39;;;;;;;7.65;5.22;;;;;;;;;;5035482;28;20021;-38
2022/05/29 00:38:05;;;;;;;11.05;6.25;;;;;;;;;;5034952;28;20052;-38
2022/05/29 00:40:38;;;;;;;8.60;6.00;;;;;;;;;;5035219;28;20809;-38
2022/05/29 00:43:04;;;;;;;10.57;6.00;;;;;;;;;;5033876;28;20022;-38
2022/05/29 00:45:32;;;;;;;8.60;5.63;;;;;;;;;;5033818;28;20021;-38
2022/05/29 00:48:03;;;;;;;9.90;5.70;;;;;;;;;;5033663;28;20022;-38
2022/05/29 00:50:28;;;;;;;10.27;5.97;;;;;;;;;;5033852;28;20022;-38
2022/05/29 00:52:53;;;;;;;15.20;7.35;;;;;;;;;;5035055;28;20362;-38
2022/05/29 00:55:21;;;;;;;10.85;7.00;;;;;;;;;;5034969;28;20072;-38
2022/05/29 00:57:48;;;;;;;8.93;5.68;;;;;;;;;;5034571;28;20639;-38
2022/05/29 01:00:16;;;;;;;8.70;6.25;;;;;;;;;;5033530;28;20034;-38
2022/05/29 01:02:42;;;;;;;8.57;6.32;;;;;;;;;;5033270;28;20031;-39
2022/05/29 01:05:08;;;;;;;9.82;5.75;;;;;;;;;;5034893;28;20022;-38
2022/05/29 01:07:35;;;;;;;9.60;6.35;;;;;;;;;;5034468;28;20532;-38
2022/05/29 01:10:01;;;;;;;8.05;5.80;;;;;;;;;;5034597;28;20030;-38
2022/05/29 01:12:50;;;;;;;10.50;6.22;;;;;;;;;;5034568;28;20025;-39
2022/05/29 01:15:15;;;;;;;10.63;6.18;;;;;;;;;;5032692;28;20120;-38
2022/05/29 01:17:44;;;;;;;10.63;5.85;;;;;;;;;;5032935;28;20104;-38
2022/05/29 01:20:10;;;;;;;;;;;;;;;;;;5017180;28;20038;-38
2022/05/29 01:22:44;;;;;;;12.52;6.65;;;;;;;;;;5034519;28;19905;-38
2022/05/29 01:25:21;;;;;;;9.25;6.90;;;;;;;;;;5034169;28;20025;-38
2022/05/29 01:27:49;;;;;;;13.18;6.30;;;;;;;;;;5034087;28;20032;-38
2022/05/29 01:30:22;;;;;;;8.00;6.18;;;;;;;;;;5032989;28;20457;-38
2022/05/29 01:33:03;;;;;;;9.02;6.43;;;;;;;;;;5032982;28;20022;-38
2022/05/29 01:35:37;;;;;;;10.60;6.55;;;;;;;;;;5034118;28;20028;-38
2022/05/29 01:38:16;;;;;;;8.80;6.00;;;;;;;;;;5033543;28;20049;-38
2022/05/29 01:40:49;;;;;;;15.45;7.43;;;;;;;;;;5032771;28;20037;-38
2022/05/29 01:43:25;;;;;;;13.02;5.85;;;;;;;;;;5034262;28;20033;-38
2022/05/29 01:45:53;;;;;;;12.52;6.53;;;;;;;;;;5032706;28;20021;-38
2022/05/29 01:48:39;;;;;;;9.95;5.93;;;;;;;;;;5032575;28;20028;-38
2022/05/29 01:51:24;;;;;;;12.32;6.43;;;;;;;;;;5022567;28;20084;-38
2022/05/29 01:53:59;;;;;;;8.57;5.60;;;;;;;;;;5032488;28;20018;-38
2022/05/29 01:56:29;;;;;;;9.15;5.28;;;;;;;;;;5032321;28;20392;-38
2022/05/29 01:58:57;;;;;;;11.15;5.45;;;;;;;;;;5033767;28;20017;-38
2022/05/29 02:01:24;;;;;;;8.55;5.57;;;;;;;;;;5033432;28;20037;-38
2022/05/29 02:03:52;;;;;;;8.68;6.18;;;;;;;;;;5033755;28;20480;-38
2022/05/29 02:06:26;;;;;;;8.18;5.88;;;;;;;;;;5032280;28;20022;-38
2022/05/29 02:08:54;;;;;;;11.93;5.43;;;;;;;;;;5033565;28;20036;-38
2022/05/29 02:11:21;;;;;;;8.65;5.15;;;;;;;;;;5033454;28;20049;-38
2022/05/29 02:13:54;;;;;;;8.48;4.57;;;;;;;;;;5033249;28;20472;-38
2022/05/29 02:16:25;;;;;;;9.40;4.78;;;;;;;;;;5033365;28;20091;-38
2022/05/29 02:18:53;;;;;;;13.07;4.50;;;;;;;;;;5033607;28;20029;-38
2022/05/29 02:21:39;;;;;;;8.23;4.40;;;;;;;;;;5033285;28;20033;-38
2022/05/29 02:24:07;;;;;;;8.50;4.18;;;;;;;;;;5021337;28;20112;-38
2022/05/29 02:26:35;;;;;;;5.85;3.85;;;;;;;;;;5033417;28;20445;-38
2022/05/29 02:29:05;;;;;;;11.68;3.63;;;;;;;;;;5032731;28;20029;-38
2022/05/29 02:31:45;;;;;;;5.53;3.20;;;;;;;;;;5031774;28;20026;-38
2022/05/29 02:34:20;;;;;;;4.03;2.50;;;;;;;;;;5033066;28;20483;-38
2022/05/29 02:36:45;;;;;;;5.20;2.90;;;;;;;;;;5032857;28;20025;-38
2022/05/29 02:39:34;;;;;;;5.72;2.58;;;;;;;;;;5031673;28;20520;-38
2022/05/29 02:42:14;;;;;;;4.55;2.47;;;;;;;;;;5031805;28;20033;-38
2022/05/29 02:44:46;;;;;;;6.78;2.70;;;;;;;;;;5031758;28;20061;-38
2022/05/29 02:47:25;;;;;;;4.82;2.33;;;;;;;;;;5031556;28;20029;-38
2022/05/29 02:50:02;;;;;;;2.97;1.90;;;;;;;;;;5033361;28;20032;-38
2022/05/29 02:52:28;;;;;;;2.83;1.60;;;;;;;;;;5032934;28;20465;-38
2022/05/29 02:54:55;;;;;;;4.00;1.90;;;;;;;;;;5032724;28;20026;-38
2022/05/29 02:57:20;;;;;;;3.67;1.75;;;;;;;;;;5033004;28;20037;-40
2022/05/29 02:59:47;;;;;;;3.55;1.42;;;;;;;;;;5032544;28;20029;-38
2022/05/29 03:02:19;;;;;;;2.40;1.83;;;;;;;;;;5033057;28;20092;-38
2022/05/29 03:04:53;;;;;;;2.83;1.77;;;;;;;;;;5032835;28;20025;-38
2022/05/29 03:07:39;;;;;;;3.03;1.42;;;;;;;;;;5032631;28;20025;-38
2022/05/29 03:10:12;;;;;;;2.47;1.50;;;;;;;;;;5032499;28;20158;-39
2022/05/29 03:12:37;;;;;;;2.85;1.25;;;;;;;;;;5031575;28;20021;-38
2022/05/29 03:15:21;;;;;;;4.53;1.25;;;;;;;;;;5032848;28;20487;-38
2022/05/29 03:18:13;;;;;;;4.50;1.50;;;;;;;;;;5032520;28;20028;-38
2022/05/29 03:20:43;;;;;;;2.60;1.35;;;;;;;;;;5029781;28;20152;-38
2022/05/29 03:23:14;;;;;;;1.70;1.10;;;;;;;;;;5032809;28;20056;-38
2022/05/29 03:25:56;;;;;;;5.63;1.50;;;;;;;;;;5031340;28;20035;-38
2022/05/29 03:28:29;;;;;;;6.93;1.40;;;;;;;;;;5031283;28;20076;-38
2022/05/29 03:30:55;;;;;;;1.88;1.30;;;;;;;;;;5032261;28;20087;-39
2022/05/29 03:33:21;;;;;;;2.58;1.25;;;;;;;;;;5032718;28;20021;-38
2022/05/29 03:36:02;;;;;;;2.58;1.25;;;;;;;;;;5031372;28;20534;-38
2022/05/29 03:38:27;;;;;;;2.15;1.05;;;;;;;;;;5031188;28;20053;-38
2022/05/29 03:40:52;;;;;;;5.68;1.55;;;;;;;;;;5035230;28;20037;-39
2022/05/29 03:43:18;;;;;;;1.60;1.10;;;;;;;;;;5034937;28;20362;-38
2022/05/29 03:45:43;;;;;;;5.50;1.60;;;;;;;;;;5034742;28;20024;-38
2022/05/29 03:48:08;;;;;;;2.88;1.20;;;;;;;;;;5036287;28;20424;-39
2022/05/29 03:50:34;;;;;;;2.45;1.30;;;;;;;;;;5036242;28;20029;-39
2022/05/29 03:53:00;;;;;;;1.75;1.10;;;;;;;;;;5036208;28;20021;-39
2022/05/29 03:55:26;;;;;;;3.60;1.40;;;;;;;;;;5035823;28;20032;-40
2022/05/29 03:57:51;;;;;;;1.42;1.25;;;;;;;;;;5036097;28;20017;-39
2022/05/29 04:00:17;;;;;;;3.08;1.30;;;;;;;;;;5035669;28;20044;-39
2022/05/29 04:02:43;;;;;;;2.00;1.00;;;;;;;;;;5034771;28;20112;-39
2022/05/29 04:05:14;;;;;;;4.18;1.60;;;;;;;;;;5036013;28;20445;-39
2022/05/29 04:13:08;;;;;;;2.88;1.30;;;;;;;;;;5035690;28;20056;-39
2022/05/29 04:15:35;;;;;;;3.38;1.13;;;;;;;;;;5034530;28;20022;-38
2022/05/29 04:18:00;;;;;;;4.20;1.17;;;;;;;;;;5035629;28;20064;-38
2022/05/29 04:20:26;;;;;;;4.05;2.03;;;;;;;;;;5034359;28;20065;-38
2022/05/29 04:22:51;;;;;;;2.30;1.20;;;;;;;;;;5035658;28;20044;-39
2022/05/29 04:25:16;;;;;;;3.25;1.35;;;;;;;;;;5035726;28;20028;-39
2022/05/29 04:27:42;;;;;;;1.17;1.05;;;;;;;;;;5035272;28;20028;-39
2022/05/29 04:30:07;;;;;;;1.63;1.20;;;;;;;;;;5034194;28;20018;-39
2022/05/29 04:35:17;;;;;;;2.78;1.25;;;;;;;;;;5035398;28;20179;-38
2022/05/29 04:37:42;;;;;;;2.45;1.20;;;;;;;;;;5033591;28;20108;-40
2022/05/29 04:40:08;;;;;;;2.33;1.20;;;;;;;;;;5033716;28;20033;-39
2022/05/29 04:42:34;;;;;;;3.55;1.33;;;;;;;;;;5033908;28;20079;-39
2022/05/29 04:44:59;;;;;;;1.88;0.85;;;;;;;;;;5035504;28;20155;-38
2022/05/29 04:47:24;;;;;;;1.67;1.15;;;;;;;;;;5033906;28;20084;-38
2022/05/29 04:49:50;;;;;;;2.65;1.08;;;;;;;;;;5033988;28;20109;-38
2022/05/29 04:52:15;;;;;;;2.95;1.80;;;;;;;;;;5032810;28;20451;-38
2022/05/29 04:54:41;;;;;;;4.93;1.10;;;;;;;;;;5035042;28;20018;-39
2022/05/29 04:57:07;;;;;;;1.52;1.13;;;;;;;;;;5033667;28;20033;-38
2022/05/29 04:59:33;;;;;;;3.27;1.00;;;;;;;;;;5034749;28;20071;-38
2022/05/29 05:01:59;;;;;;;4.40;1.10;;;;;;;;;;5033652;28;20025;-38
2022/05/29 05:04:24;;;;;;;3.95;1.67;;;;;;;;;;5034756;28;20392;-38
2022/05/29 05:06:53;;;;;;;5.32;1.05;;;;;;;;;;5033331;28;20053;-38
2022/05/29 05:09:18;;;;;;;1.10;1.00;;;;;;;;;;5033187;28;20022;-38
2022/05/29 05:11:43;;;;;;;1.92;1.10;;;;;;;;;;5034932;28;20102;-38
2022/05/29 05:14:09;;;;;;;3.40;1.20;;;;;;;;;;5034709;28;20056;-37
2022/05/29 05:16:34;;;;;;;5.10;1.35;;;;;;;;;;5034535;28;20029;-38
2022/05/29 05:18:59;;;;;;;3.65;1.33;;;;;;;;;;5033161;28;20021;-39
2022/05/29 05:21:25;;;;;;;3.13;1.25;;;;;;;;;;5032973;28;20048;-39
2022/05/29 05:23:50;;;;;;;2.30;1.20;;;;;;;;;;5033073;28;20021;-39
2022/05/29 05:26:19;;;;;;;3.03;1.10;;;;;;;;;;5034440;28;20423;-39
2022/05/29 05:28:44;;;;;;;3.72;0.90;;;;;;;;;;5034380;28;20431;-39
2022/05/29 05:31:09;;;;;;;3.15;1.20;;;;;;;;;;5034012;28;20079;-39
2022/05/29 05:33:35;;;;;;;5.63;1.30;;;;;;;;;;5033072;28;20026;-39
2022/05/29 05:36:00;;;;;;;2.95;1.08;;;;;;;;;;5034036;28;20025;-39
2022/05/29 05:38:25;;;;;;;3.03;1.25;;;;;;;;;;5033828;28;20053;-39
2022/05/29 05:40:51;;;;;;;4.72;1.08;;;;;;;;;;5033904;28;20033;-39
2022/05/29 05:43:19;;;;;;;4.47;1.48;;;;;;;;;;5032840;28;20021;-39
2022/05/29 05:45:44;;;;;;;2.28;1.38;;;;;;;;;;5032872;28;20422;-39
2022/05/29 05:48:10;;;;;;;5.90;1.40;;;;;;;;;;5033834;28;20026;-39
2022/05/29 05:50:36;;;;;;;2.45;1.17;;;;;;;;;;5033929;28;20025;-39
2022/05/29 05:53:02;;;;;;;4.10;1.27;;;;;;;;;;5033668;28;20025;-40
2022/05/29 05:55:28;;;;;;;5.45;1.10;;;;;;;;;;5033669;28;20392;-39
2022/05/29 05:57:53;;;;;;;1.98;1.00;;;;;;;;;;5033978;28;20523;-39
2022/05/29 06:00:19;;;;;;;1.92;1.13;;;;;;;;;;5033616;28;20437;-39
2022/05/29 06:02:44;;;;;;;2.83;0.95;;;;;;;;;;5033119;28;20444;-39
2022/05/29 06:05:11;;;;;;;3.53;0.90;;;;;;;;;;5033244;28;20045;-39
2022/05/29 06:07:36;;;;;;;1.35;0.80;;;;;;;;;;5033544;28;20022;-39
2022/05/29 06:10:02;;;;;;;3.15;1.13;;;;;;;;;;5033372;28;20098;-40
2022/05/29 06:12:27;;;;;;;1.73;0.70;;;;;;;;;;5033679;28;20075;-39
2022/05/29 06:14:54;;;;;;;3.95;0.90;;;;;;;;;;5033482;28;20022;-39
2022/05/29 06:17:20;;;;;;;1.73;1.20;;;;;;;;;;5033231;28;20453;-38
2022/05/29 06:19:45;;;;;;;1.85;0.98;;;;;;;;;;5033447;28;20032;-38
2022/05/29 06:22:10;;;;;;;2.40;0.90;;;;;;;;;;5033266;28;20013;-39
2022/05/29 06:24:36;;;;;;;2.92;1.10;;;;;;;;;;5033473;28;20010;-38
2022/05/29 06:27:02;;;;;;;1.00;0.82;;;;;;;;;;5032161;28;20465;-38
2022/05/29 06:29:27;;;;;;;3.00;1.00;;;;;;;;;;5033363;28;20049;-39
2022/05/29 06:31:55;;;;;;;1.95;0.80;;;;;;;;;;5033345;28;20027;-39
2022/05/29 06:34:21;;;;;;;1.17;0.68;;;;;;;;;;5033212;28;20018;-38
2022/05/29 06:36:46;;;;;;;3.45;0.85;;;;;;;;;;5032981;28;20097;-38
2022/05/29 06:39:12;;;;;;;1.05;0.80;;;;;;;;;;5031500;28;20041;-39
2022/05/29 06:41:39;;;;;;;1.65;0.95;;;;;;;;;;5032814;28;20155;-38
2022/05/29 06:44:05;;;;;;;4.90;0.80;;;;;;;;;;5032851;28;20021;-38
2022/05/29 06:46:30;;;;;;;3.00;0.93;;;;;;;;;;5033052;28;20100;-38
2022/05/29 06:48:55;;;;;;;2.22;1.15;;;;;;;;;;5033119;28;20488;-38
2022/05/29 06:51:24;;;;;;;1.10;0.80;;;;;;;;;;5032703;28;20025;-38
2022/05/29 06:53:50;;;;;;;1.90;0.97;;;;;;;;;;5032687;28;20045;-38
2022/05/29 06:56:16;;;;;;;2.28;0.77;;;;;;;;;;5032931;28;20021;-38
2022/05/29 06:58:41;;;;;;;1.70;0.95;;;;;;;;;;5032992;28;20017;-38
2022/05/29 07:09:20;;;;;;;1.70;0.80;;;;;;;;;;5032789;28;20028;-38
2022/05/29 07:11:47;;;;;;;3.78;1.15;;;;;;;;;;5031555;28;20025;-38
2022/05/29 07:14:14;;;;;;;2.58;1.67;;;;;;;;;;5033226;28;20373;-38
2022/05/29 07:16:39;;;;;;;1.58;0.90;;;;;;;;;;5036936;28;20021;-43
2022/05/29 07:19:05;;;;;;;1.70;0.90;;;;;;;;;;5036594;28;20051;-38
2022/05/29 07:21:33;;;;;;;1.30;0.90;;;;;;;;;;5035462;28;20033;-38
2022/05/29 07:23:59;;;;;;;1.27;0.83;;;;;;;;;;5036672;28;20079;-39
2022/05/29 07:26:25;;;;;;;3.28;0.80;;;;;;;;;;5036704;28;20026;-39
2022/05/29 07:28:51;;;;;;;1.90;0.82;;;;;;;;;;5036389;28;20357;-39
2022/05/29 07:31:16;;;;;;;3.20;0.85;;;;;;;;;;5034965;28;20112;-39
2022/05/29 07:33:42;;;;;;;1.90;0.80;;;;;;;;;;5036245;28;20025;-38
2022/05/29 07:36:11;;;;;;;6.00;1.00;;;;;;;;;;5035319;28;20396;-38
2022/05/29 07:38:37;;;;;;;5.53;1.13;;;;;;;;;;5036224;28;20060;-39
2022/05/29 07:43:18;;;;;;;5.63;0.88;;;;;;;;;;5036241;28;20041;-38
2022/05/29 07:43:47;;;;;;;1.25;0.85;;;;;;;;;;5036190;28;20384;-38
2022/05/29 07:46:13;;;;;;;2.80;1.02;;;;;;;;;;5036075;28;20022;-38
2022/05/29 07:48:38;;;;;;;2.88;0.98;;;;;;;;;;5036110;28;20018;-38
2022/05/29 07:51:03;;;;;;;3.42;0.65;;;;;;;;;;5036282;28;20026;-38
2022/05/29 07:53:29;;;;;;;3.20;1.10;;;;;;;;;;5034866;28;20026;-38
2022/05/29 07:55:54;;;;;;;2.10;1.00;;;;;;;;;;5034844;28;20092;-38
2022/05/29 07:58:19;;;;;;;1.23;0.98;;;;;;;;;;5035940;28;20028;-39
2022/05/29 08:00:45;;;;;;;4.60;1.20;;;;;;;;;;5035491;28;20037;-39
2022/05/29 08:03:10;;;;;;;1.55;0.70;;;;;;;;;;5034783;28;20025;-38
2022/05/29 08:05:37;;;;;;;2.75;0.93;;;;;;;;;;5035835;28;20030;-38
2022/05/29 08:08:04;;;;;;;1.08;0.70;;;;;;;;;;5035815;28;20025;-38
2022/05/29 08:10:30;;;;;;;3.00;1.60;;;;;;;;;;5035886;28;20112;-38
2022/05/29 08:12:55;;;;;;;5.03;1.30;;;;;;;;;;5034328;28;20025;-38
2022/05/29 08:15:21;;;;;;;2.00;1.20;;;;;;;;;;5035434;28;20014;-38
2022/05/29 08:17:47;;;;;;;3.95;1.23;;;;;;;;;;5035698;28;20380;-38
2022/05/29 08:20:13;;;;;;;1.98;0.80;;;;;;;;;;5034450;28;20033;-38
2022/05/29 08:22:39;;;;;;;3.95;0.80;;;;;;;;;;5034296;28;20037;-38
2022/05/29 08:30:41;;;;;;;1.17;0.80;;;;;;;;;;5035433;28;20059;-38
2022/05/29 08:33:23;;;;;;;2.13;0.93;;;;;;;;;;5034160;28;20057;-39
2022/05/29 08:35:57;;;;;;;2.55;1.00;;;;;;;;;;5035173;28;20029;-39
2022/05/29 08:38:23;;;;;;;1.15;0.60;;;;;;;;;;5033596;28;20049;-39
2022/05/29 08:40:50;;;;;;;1.30;1.15;;;;;;;;;;5034073;28;20045;-39
2022/05/29 08:43:18;;;;;;;4.35;1.00;;;;;;;;;;5035313;28;20033;-39
2022/05/29 08:45:45;;;;;;;1.73;0.82;;;;;;;;;;5035109;28;20067;-38
2022/05/29 08:48:11;;;;;;;4.63;1.20;;;;;;;;;;5035031;28;20021;-38
2022/05/29 08:50:44;;;;;;;2.35;1.02;;;;;;;;;;5033687;28;20063;-39
2022/05/29 08:53:15;;;;;;;2.85;1.13;;;;;;;;;;5034936;28;20048;-38
2022/05/29 08:55:47;;;;;;;2.80;1.70;;;;;;;;;;5035148;28;20143;-38
2022/05/29 08:58:32;;;;;;;2.85;1.55;;;;;;;;;;5034937;28;20030;-38
2022/05/29 09:00:57;;;;;;;3.78;1.98;;;;;;;;;;5034680;28;20408;-38
2022/05/29 09:03:29;;;;;;;7.45;2.45;;;;;;;;;;5033283;28;20036;-39
2022/05/29 09:06:03;;;;;;;6.30;1.65;;;;;;;;;;5034687;28;20025;-38
2022/05/29 09:08:41;;;;;;;3.03;1.77;;;;;;;;;;5033481;28;20033;-39
2022/05/29 09:11:17;;;;;;;5.88;1.38;;;;;;;;;;5034804;28;20021;-38
2022/05/29 09:13:44;;;;;;;2.40;0.93;;;;;;;;;;5033353;28;20122;-38
2022/05/29 09:16:13;;;;;;;2.63;1.10;;;;;;;;;;5033090;28;20096;-39
2022/05/29 09:18:40;;;;;;;1.20;1.10;;;;;;;;;;5034778;28;20022;-39
2022/05/29 09:21:10;;;;;;;3.08;1.00;;;;;;;;;;5034414;28;20107;-39
2022/05/29 09:23:40;;;;;;;1.85;1.40;;;;;;;;;;5033354;28;20507;-39
2022/05/29 09:26:06;;;;;;;1.55;1.05;;;;;;;;;;5034468;28;20044;-38
2022/05/29 09:28:34;;;;;;;3.38;1.55;;;;;;;;;;5032836;28;20041;-38
2022/05/29 09:31:29;;;;;;;1.98;1.02;;;;;;;;;;5033038;28;20030;-38
2022/05/29 09:33:55;;;;;;;3.42;1.10;;;;;;;;;;5029269;28;20033;-38
2022/05/29 09:36:30;;;;;;;5.07;1.73;;;;;;;;;;5034025;28;20391;-38
2022/05/29 09:38:58;;;;;;;3.35;1.48;;;;;;;;;;5033668;28;20127;-38
2022/05/29 09:41:29;;;;;;;2.03;1.00;;;;;;;;;;5032762;28;20087;-38
2022/05/29 09:44:14;;;;;;;5.32;1.55;;;;;;;;;;5032951;28;20025;-38
2022/05/29 09:46:41;;;;;;;2.53;1.48;;;;;;;;;;5033520;28;20037;-38
2022/05/29 09:52:14;;;;;;;4.10;1.85;;;;;;;;;;5033800;28;20531;-38
2022/05/29 09:54:40;;;;;;;5.55;2.00;;;;;;;;;;5032518;28;20022;-38
2022/05/29 09:57:10;;;;;;;2.08;1.55;;;;;;;;;;5033694;28;20030;-38
2022/05/29 09:59:37;;;;;;;2.83;1.70;;;;;;;;;;5033493;28;20069;-38
2022/05/29 10:02:03;;;;;;;2.58;1.50;;;;;;;;;;5015624;28;20029;-38
2022/05/29 10:04:39;;;;;;;20.63;6.35;;;;;;;;;;5033583;28;20026;-38
2022/05/29 10:07:31;;;;;;;5.63;2.22;;;;;;;;;;5033407;28;20017;-38
2022/05/29 10:10:05;;;;;;;3.35;1.85;;;;;;;;;;5030901;28;20045;-38
2022/05/29 10:12:41;;;;;;;7.07;2.67;;;;;;;;;;5032244;28;20040;-38
2022/05/29 10:15:15;;;;;;;6.18;2.10;;;;;;;;;;5033705;28;20049;-38
2022/05/29 10:17:40;;;;;;;2.95;1.92;;;;;;;;;;5032260;28;20412;-38
2022/05/29 10:20:26;;;;;;;5.90;1.50;;;;;;;;;;5032037;28;20033;-38
2022/05/29 10:22:54;;;;;;;2.00;1.40;;;;;;;;;;5033158;28;20029;-40
2022/05/29 10:25:21;;;;;;;2.63;2.05;;;;;;;;;;5032154;28;20036;-40
2022/05/29 10:27:47;;;;;;;3.08;1.40;;;;;;;;;;5033348;28;20025;-39
2022/05/29 10:30:25;;;;;;;3.25;1.90;;;;;;;;;;5033045;28;20021;-39
2022/05/29 10:32:58;;;;;;;7.53;2.35;;;;;;;;;;5033260;28;20025;-39
2022/05/29 10:35:28;;;;;;;5.03;1.75;;;;;;;;;;5033011;28;20025;-39
2022/05/29 10:37:54;;;;;;;8.07;2.38;;;;;;;;;;5033091;28;20040;-39
2022/05/29 10:40:22;;;;;;;3.38;1.52;;;;;;;;;;5031827;28;20120;-39
2022/05/29 10:42:50;;;;;;;4.40;1.73;;;;;;;;;;5032974;28;20117;-39
2022/05/29 10:45:26;;;;;;;2.25;1.30;;;;;;;;;;5033243;28;20032;-39
2022/05/29 10:48:06;;;;;;;3.75;1.55;;;;;;;;;;5031539;28;20055;-39
2022/05/29 10:50:49;;;;;;;2.75;1.27;;;;;;;;;;5032527;28;20032;-39
2022/05/29 10:53:32;;;;;;;1.30;1.20;;;;;;;;;;5032973;28;20029;-40
2022/05/29 10:56:21;;;;;;;2.47;1.30;;;;;;;;;;5032984;28;20036;-39
2022/05/29 10:58:46;;;;;;;4.55;1.08;;;;;;;;;;5021682;28;20028;-39
2022/05/29 11:04:34;;;;;;;2.83;1.50;;;;;;;;;;5033031;28;20115;-39
2022/05/29 11:07:08;;;;;;;3.42;1.10;;;;;;;;;;5032576;28;20429;-39
2022/05/29 11:09:39;;;;;;;3.38;1.10;;;;;;;;;;5031637;28;20021;-39
2022/05/29 11:12:05;;;;;;;6.45;1.55;;;;;;;;;;5032816;28;20380;-39
2022/05/29 11:14:46;;;;;;;1.90;0.98;;;;;;;;;;5031330;28;20025;-39
2022/05/29 11:17:27;;;;;;;2.67;1.13;;;;;;;;;;5032752;28;20108;-39
2022/05/29 11:20:01;;;;;;;2.85;1.10;;;;;;;;;;5032552;28;20480;-39
2022/05/29 11:22:45;;;;;;;2.97;1.27;;;;;;;;;;5031456;28;20112;-39
2022/05/29 11:25:10;;;;;;;1.20;0.90;;;;;;;;;;5031443;28;20388;-39
2022/05/29 11:27:57;;;;;;;2.00;0.88;;;;;;;;;;5031124;28;20024;-39
2022/05/29 11:30:30;;;;;;;4.68;1.10;;;;;;;;;;5031350;28;20095;-39
2022/05/29 11:33:09;;;;;;;3.35;1.00;;;;;;;;;;5032647;28;20032;-39
2022/05/29 11:35:53;;;;;;;1.00;0.85;;;;;;;;;;5031274;28;20464;-39
2022/05/29 11:38:18;;;;;;;1.38;0.60;;;;;;;;;;5032113;28;20136;-39
2022/05/29 11:40:46;;;;;;;1.07;0.70;;;;;;;;;;5032500;28;20120;-39
2022/05/29 11:43:26;;;;;;;3.47;0.93;;;;;;;;;;5027853;28;20275;-39
2022/05/29 11:51:28;;;;;;;2.72;0.75;;;;;;;;;;5012876;28;20049;-39
2022/05/29 11:53:53;;;;;;;0.70;0.60;;;;;;;;;;5011273;28;20022;-40
2022/05/29 11:56:26;;;;;;;1.15;0.90;;;;;;;;;;5013093;28;20118;-39
2022/05/29 11:59:24;;;;;;;1.85;0.90;;;;;;;;;;5011337;28;20025;-40
2022/05/29 12:01:52;;;;;;;1.17;0.73;;;;;;;;;;4991995;28;20485;-39
2022/05/29 12:04:20;;;;;;;1.55;0.93;;;;;;;;;;5014879;28;20428;-39
2022/05/29 12:06:51;;;;;;;1.10;0.70;;;;;;;;;;5016355;28;20112;-39
2022/05/29 12:09:19;;;;;;;0.40;0.40;;;;;;;;;;5016065;28;20424;-40
2022/05/29 12:11:47;;;;;;;1.02;0.77;;;;;;;;;;5015809;28;20052;-40
2022/05/29 12:14:13;;;;;;;3.97;0.82;;;;;;;;;;5016176;28;20026;-39
2022/05/29 12:16:40;;;;;;;5.60;0.98;;;;;;;;;;5014678;28;20026;-39
2022/05/29 12:19:26;;;;;;;5.32;0.90;;;;;;;;;;5015737;28;20025;-40
2022/05/29 12:22:00;;;;;;;0.70;0.70;;;;;;;;;;5015226;28;20493;-40
2022/05/29 12:24:28;;;;;;;3.55;0.80;;;;;;;;;;5014611;28;20025;-40
2022/05/29 12:26:57;;;;;;;2.30;0.98;;;;;;;;;;5015888;28;20173;-39
2022/05/29 12:29:26;;;;;;;3.65;0.90;;;;;;;;;;5014576;28;20096;-40
2022/05/29 12:32:13;;;;;;;2.70;1.20;;;;;;;;;;5014201;28;20465;-40
2022/05/29 12:34:50;;;;;;;2.15;1.15;;;;;;;;;;5015346;28;20727;-39
2022/05/29 12:37:35;;;;;;;2.60;1.10;;;;;;;;;;5014368;28;20030;-40
2022/05/29 12:40:19;;;;;;;2.00;1.10;;;;;;;;;;5014131;28;20053;-39
2022/05/29 12:42:56;;;;;;;3.78;1.00;;;;;;;;;;5031508;28;20029;-39
2022/05/29 12:45:37;;;;;;;1.40;0.82;;;;;;;;;;5034055;28;20107;-40
2022/05/29 12:48:34;;;;;;;1.42;1.08;;;;;;;;;;5035390;28;20025;-39
2022/05/29 12:51:13;;;;;;;2.17;1.10;;;;;;;;;;5023023;28;20052;-39
2022/05/29 12:53:55;;;;;;;2.60;1.10;;;;;;;;;;5035070;28;20044;-40
2022/05/29 12:56:33;;;;;;;2.45;1.35;;;;;;;;;;5035148;28;20109;-39
2022/05/29 12:58:59;;;;;;;4.90;1.70;;;;;;;;;;5035350;28;20029;-39
2022/05/29 13:01:27;;;;;;;2.13;0.98;;;;;;;;;;5033371;28;20060;-39
2022/05/29 13:03:52;;;;;;;1.57;1.30;;;;;;;;;;5034594;28;20464;-39
2022/05/29 13:06:24;;;;;;;3.03;0.85;;;;;;;;;;5035102;28;20293;-39
2022/05/29 13:09:13;;;;;;;3.45;1.10;;;;;;;;;;5033489;28;20036;-39
2022/05/29 13:11:40;;;;;;;3.30;1.10;;;;;;;;;;5020941;28;20044;-39
2022/05/29 13:14:07;;;;;;;2.22;1.00;;;;;;;;;;5026509;28;20125;-39
2022/05/29 13:16:45;;;;;;;0.90;0.90;;;;;;;;;;5033068;28;20021;-39
2022/05/29 13:19:24;;;;;;;1.38;0.90;;;;;;;;;;5014699;28;20465;-39
2022/05/29 13:21:58;;;;;;;2.20;1.13;;;;;;;;;;5014716;28;20088;-39
2022/05/29 13:24:25;;;;;;;10.55;1.10;;;;;;;;;;5014977;28;20442;-40
2022/05/29 13:27:08;;;;;;;2.53;1.20;;;;;;;;;;5014420;28;20046;-39
2022/05/29 13:29:37;;;;;;;1.35;1.25;;;;;;;;;;5014549;28;20038;-40
2022/05/29 13:32:14;;;;;;;2.38;1.40;;;;;;;;;;5014408;28;20064;-39
2022/05/29 13:34:43;;;;;;;0.88;0.85;;;;;;;;;;5013213;28;20032;-40
2022/05/29 13:37:09;;;;;;;;;;;;;;;;;;5015003;28;20035;-39
2022/05/29 13:39:51;;;;;;;2.60;0.90;;;;;;;;;;5016110;28;19921;-39
2022/05/29 13:42:37;;;;;;;1.23;1.00;;;;;;;;;;5034027;28;20549;-40
2022/05/29 13:45:18;;;;;;;5.43;1.10;;;;;;;;;;5032809;28;20030;-39
2022/05/29 13:47:44;;;;;;;3.17;1.20;;;;;;;;;;5032513;28;20044;-40
2022/05/29 13:50:17;;;;;;;1.42;0.93;;;;;;;;;;5032599;28;20028;-39
2022/05/29 13:53:09;;;;;;;3.50;0.93;;;;;;;;;;5033966;28;20029;-40
2022/05/29 13:55:34;;;;;;;1.17;0.85;;;;;;;;;;5024917;28;20037;-40
2022/05/29 14:03:59;;;;;;;2.08;0.98;;;;;;;;;;5033582;28;20564;-40
2022/05/29 14:06:24;;;;;;;4.85;1.20;;;;;;;;;;5033553;28;20033;-40
2022/05/29 14:08:55;;;;;;;2.35;1.00;;;;;;;;;;5033463;28;20488;-40
2022/05/29 14:11:21;;;;;;;1.80;0.90;;;;;;;;;;5033985;28;20103;-39
2022/05/29 14:13:48;;;;;;;2.17;0.90;;;;;;;;;;5033514;28;20469;-39
2022/05/29 14:16:29;;;;;;;1.98;1.05;;;;;;;;;;5033760;28;20032;-39
2022/05/29 14:19:00;;;;;;;2.80;1.02;;;;;;;;;;5033388;28;20059;-40
2022/05/29 14:21:29;;;;;;;1.95;1.23;;;;;;;;;;5031998;28;20033;-40
2022/05/29 14:24:17;;;;;;;3.60;1.07;;;;;;;;;;5032854;28;20032;-39
2022/05/29 14:26:49;;;;;;;2.70;1.23;;;;;;;;;;5031720;28;20032;-39
2022/05/29 14:29:26;;;;;;;3.15;1.42;;;;;;;;;;5031796;28;20029;-41
2022/05/29 14:31:52;;;;;;;21.92;2.25;;;;;;;;;;5032906;28;20022;-39
2022/05/29 14:34:23;;;;;;;2.50;1.10;;;;;;;;;;5031924;28;20033;-39
2022/05/29 14:37:09;;;;;;;1.88;1.17;;;;;;;;;;5033487;28;20022;-40
2022/05/29 14:39:35;;;;;;;5.82;1.20;;;;;;;;;;5032669;28;20042;-39
2022/05/29 14:42:02;;;;;;;2.33;1.38;;;;;;;;;;5031467;28;20087;-39
2022/05/29 14:44:33;;;;;;;2.28;1.27;;;;;;;;;;5032839;28;20049;-39
2022/05/29 14:47:04;;;;;;;5.07;1.50;;;;;;;;;;5032955;28;20554;-40
2022/05/29 14:49:49;;;;;;;3.17;0.98;;;;;;;;;;5032921;28;20022;-39
2022/05/29 14:52:32;;;;;;;3.20;1.00;;;;;;;;;;5021813;28;20033;-39
2022/05/29 14:54:59;;;;;;;1.95;1.10;;;;;;;;;;5033048;28;20028;-39
2022/05/29 14:57:27;;;;;;;3.08;1.23;;;;;;;;;;5032758;28;20030;-39
2022/05/29 14:59:53;;;;;;;19.92;1.95;;;;;;;;;;5033189;28;20079;-39
2022/05/29 15:02:18;;;;;;;1.88;1.25;;;;;;;;;;5032978;28;20037;-39
2022/05/29 15:04:44;;;;;;;2.28;1.33;;;;;;;;;;5033099;28;20026;-39
2022/05/29 15:10:31;;;;;;;4.50;1.38;;;;;;;;;;5033005;28;20029;-38
2022/05/29 15:13:12;;;;;;;4.68;1.13;;;;;;;;;;5031563;28;20053;-38
2022/05/29 15:15:45;;;;;;;2.63;1.20;;;;;;;;;;5031243;28;20045;-38
2022/05/29 15:18:19;;;;;;;2.35;1.13;;;;;;;;;;5032786;28;20026;-39
2022/05/29 15:26:18;;;;;;;6.47;1.45;;;;;;;;;;5032886;28;20099;-39
2022/05/29 15:28:50;;;;;;;4.90;1.50;;;;;;;;;;5031486;28;20461;-39
2022/05/29 15:31:24;;;;;;;3.67;1.48;;;;;;;;;;5031408;28;20033;-39
2022/05/29 15:33:58;;;;;;;2.53;1.20;;;;;;;;;;5032553;28;20137;-39
2022/05/29 15:36:29;;;;;;;5.45;1.42;;;;;;;;;;5033194;28;20026;-39
2022/05/29 15:39:01;;;;;;;2.72;1.10;;;;;;;;;;5031676;28;20397;-39
2022/05/29 15:41:49;;;;;;;2.33;1.52;;;;;;;;;;5048384;28;20038;-39
2022/05/29 15:44:14;;;;;;;4.43;1.27;;;;;;;;;;5016654;28;20077;-39
2022/05/29 15:46:53;;;;;;;2.20;1.60;;;;;;;;;;5015262;28;20029;-39
2022/05/29 15:49:36;;;;;;;3.15;1.48;;;;;;;;;;5016361;28;20080;-39
2022/05/29 15:52:07;;;;;;;4.85;1.65;;;;;;;;;;5015254;28;20026;-39